createdAt,value
2017-12-14T00:00:10.501Z,6.28
2017-12-14T00:01:10.527Z,6.33
2017-12-14T00:02:10.789Z,6.3
2017-12-14T00:03:10.790Z,6.3
2017-12-14T00:04:10.801Z,6.31
2017-12-14T00:05:10.537Z,6.3
2017-12-14T00:06:10.835Z,6.28
2017-12-14T00:07:10.838Z,6.3
2017-12-14T00:08:10.574Z,6.31
2017-12-14T00:09:10.908Z,6.33
2017-12-14T00:10:10.598Z,6.27
2017-12-14T00:11:10.613Z,6.35
2017-12-14T00:12:10.895Z,6.39
2017-12-14T00:13:10.909Z,6.31
2017-12-14T00:14:10.916Z,6.3
2017-12-14T00:15:10.923Z,6.36
2017-12-14T00:16:10.662Z,6.36
2017-12-14T00:17:10.428Z,6.36
2017-12-14T00:18:10.407Z,6.39
2017-12-14T00:19:11.018Z,6.31
2017-12-14T00:20:10.707Z,6.33
2017-12-14T00:21:11.022Z,6.41
2017-12-14T00:22:11.006Z,6.36
2017-12-14T00:23:11.014Z,6.39
2017-12-14T00:24:10.800Z,6.39
2017-12-14T00:25:11.038Z,6.33
2017-12-14T00:26:11.052Z,6.33
2017-12-14T00:27:11.060Z,6.39
2017-12-14T00:28:10.796Z,6.3
2017-12-14T00:29:10.810Z,6.39
2017-12-14T00:30:11.100Z,6.35
2017-12-14T00:31:11.104Z,6.44
2017-12-14T00:32:11.116Z,6.33
2017-12-14T00:33:11.127Z,6.33
2017-12-14T00:34:11.139Z,6.31
2017-12-14T00:35:11.150Z,6.36
2017-12-14T00:36:10.611Z,6.46
2017-12-14T00:37:11.172Z,6.35
2017-12-14T00:38:11.183Z,6.41
2017-12-14T00:39:10.921Z,6.44
2017-12-14T00:40:11.203Z,6.48
2017-12-14T00:41:10.948Z,6.49
2017-12-14T00:42:11.227Z,6.44
2017-12-14T00:43:10.968Z,6.42
2017-12-14T00:44:10.977Z,6.36
2017-12-14T00:45:10.989Z,6.48
2017-12-14T00:46:11.274Z,6.51
2017-12-14T00:47:11.348Z,6.52
2017-12-14T00:48:11.297Z,6.51
2017-12-14T00:49:11.311Z,6.45
2017-12-14T00:50:11.041Z,6.45
2017-12-14T00:51:11.058Z,6.49
2017-12-14T00:52:11.345Z,6.49
2017-12-14T00:53:11.359Z,6.48
2017-12-14T00:54:11.361Z,6.51
2017-12-14T00:55:11.099Z,6.46
2017-12-14T00:56:11.383Z,6.48
2017-12-14T00:57:11.404Z,6.52
2017-12-14T00:58:11.411Z,6.49
2017-12-14T00:59:11.143Z,6.48
2017-12-14T01:00:11.432Z,6.48
2017-12-14T01:01:11.171Z,6.52
2017-12-14T01:02:11.452Z,6.57
2017-12-14T01:03:11.191Z,6.59
2017-12-14T01:04:11.477Z,6.57
2017-12-14T01:05:11.489Z,6.54
2017-12-14T01:06:11.231Z,6.49
2017-12-14T01:07:11.561Z,6.57
2017-12-14T01:08:11.526Z,6.54
2017-12-14T01:09:11.539Z,6.54
2017-12-14T01:10:11.545Z,6.57
2017-12-14T01:11:11.280Z,6.54
2017-12-14T01:12:11.579Z,6.57
2017-12-14T01:13:11.026Z,6.57
2017-12-14T01:14:11.591Z,6.57
2017-12-14T01:15:11.598Z,6.57
2017-12-14T01:16:11.611Z,6.56
2017-12-14T01:17:11.348Z,6.52
2017-12-14T01:18:11.359Z,6.56
2017-12-14T01:19:11.643Z,6.56
2017-12-14T01:20:11.552Z,6.56
2017-12-14T01:21:11.669Z,6.51
2017-12-14T01:22:11.406Z,6.56
2017-12-14T01:23:11.139Z,6.57
2017-12-14T01:24:11.767Z,6.54
2017-12-14T01:25:11.714Z,6.56
2017-12-14T01:26:11.171Z,6.52
2017-12-14T01:27:11.741Z,6.52
2017-12-14T01:28:11.196Z,6.52
2017-12-14T01:29:11.208Z,6.62
2017-12-14T01:30:11.768Z,6.63
2017-12-14T01:31:11.788Z,6.52
2017-12-14T01:32:11.518Z,6.62
2017-12-14T01:33:11.805Z,6.54
2017-12-14T01:34:11.559Z,6.6
2017-12-14T01:35:11.828Z,6.54
2017-12-14T01:36:11.567Z,6.59
2017-12-14T01:37:11.893Z,6.54
2017-12-14T01:38:11.861Z,6.46
2017-12-14T01:39:11.597Z,6.48
2017-12-14T01:40:11.339Z,6.51
2017-12-14T01:41:11.345Z,6.59
2017-12-14T01:42:11.392Z,6.59
2017-12-14T01:43:11.647Z,6.56
2017-12-14T01:44:11.936Z,6.59
2017-12-14T01:45:11.942Z,6.6
2017-12-14T01:46:11.684Z,6.52
2017-12-14T01:47:11.689Z,6.57
2017-12-14T01:48:11.976Z,6.57
2017-12-14T01:49:11.988Z,6.54
2017-12-14T01:50:11.723Z,6.52
2017-12-14T01:51:11.731Z,6.56
2017-12-14T01:52:12.019Z,6.62
2017-12-14T01:53:12.029Z,6.49
2017-12-14T01:54:12.088Z,6.46
2017-12-14T01:55:12.056Z,6.45
2017-12-14T01:56:12.067Z,6.51
2017-12-14T01:57:12.078Z,6.48
2017-12-14T01:58:12.256Z,6.51
2017-12-14T01:59:12.098Z,6.46
2017-12-14T02:00:12.113Z,6.49
2017-12-14T02:01:12.123Z,6.49
2017-12-14T02:02:11.629Z,6.44
2017-12-14T02:03:12.146Z,6.52
2017-12-14T02:04:11.879Z,6.46
2017-12-14T02:05:12.167Z,6.48
2017-12-14T02:06:11.901Z,6.46
2017-12-14T02:07:11.910Z,6.42
2017-12-14T02:08:12.202Z,6.52
2017-12-14T02:09:12.208Z,6.48
2017-12-14T02:10:12.259Z,6.45
2017-12-14T02:11:12.236Z,6.48
2017-12-14T02:12:12.256Z,6.54
2017-12-14T02:13:12.257Z,6.49
2017-12-14T02:14:12.270Z,6.48
2017-12-14T02:15:12.343Z,6.48
2017-12-14T02:16:12.015Z,6.49
2017-12-14T02:17:12.027Z,6.42
2017-12-14T02:18:12.316Z,6.46
2017-12-14T02:19:12.055Z,6.51
2017-12-14T02:20:12.386Z,6.49
2017-12-14T02:21:12.351Z,6.49
2017-12-14T02:22:12.367Z,6.51
2017-12-14T02:23:12.371Z,6.48
2017-12-14T02:24:12.379Z,6.49
2017-12-14T02:25:12.442Z,6.44
2017-12-14T02:26:12.411Z,6.54
2017-12-14T02:27:12.150Z,6.49
2017-12-14T02:28:12.149Z,6.51
2017-12-14T02:29:12.162Z,6.48
2017-12-14T02:30:12.270Z,6.56
2017-12-14T02:31:12.185Z,6.46
2017-12-14T02:32:12.471Z,6.42
2017-12-14T02:33:12.541Z,6.49
2017-12-14T02:34:12.496Z,6.49
2017-12-14T02:35:12.515Z,6.48
2017-12-14T02:36:12.529Z,6.42
2017-12-14T02:37:12.530Z,6.45
2017-12-14T02:38:12.546Z,6.48
2017-12-14T02:39:12.553Z,6.52
2017-12-14T02:40:12.569Z,6.48
2017-12-14T02:41:12.301Z,6.45
2017-12-14T02:42:12.317Z,6.46
2017-12-14T02:43:12.652Z,6.45
2017-12-14T02:44:12.623Z,6.48
2017-12-14T02:45:12.681Z,6.45
2017-12-14T02:46:12.639Z,6.48
2017-12-14T02:47:12.676Z,6.48
2017-12-14T02:48:12.675Z,6.51
2017-12-14T02:49:12.667Z,6.48
2017-12-14T02:50:12.682Z,6.56
2017-12-14T02:51:12.693Z,6.51
2017-12-14T02:52:12.424Z,6.49
2017-12-14T02:53:12.454Z,6.51
2017-12-14T02:54:12.730Z,6.49
2017-12-14T02:55:12.736Z,6.49
2017-12-14T02:56:12.887Z,6.49
2017-12-14T02:57:12.481Z,6.49
2017-12-14T02:58:12.777Z,6.48
2017-12-14T02:59:12.785Z,6.42
2017-12-14T03:00:12.792Z,6.46
2017-12-14T03:01:12.808Z,6.48
2017-12-14T03:02:12.827Z,6.51
2017-12-14T03:03:12.830Z,6.51
2017-12-14T03:04:12.840Z,6.52
2017-12-14T03:05:13.450Z,6.45
2017-12-14T03:06:12.858Z,6.48
2017-12-14T03:07:12.876Z,6.44
2017-12-14T03:08:12.884Z,6.48
2017-12-14T03:09:12.895Z,6.49
2017-12-14T03:10:12.353Z,6.45
2017-12-14T03:11:12.364Z,6.45
2017-12-14T03:12:12.926Z,6.48
2017-12-14T03:13:12.991Z,6.45
2017-12-14T03:14:12.950Z,6.48
2017-12-14T03:15:12.684Z,6.46
2017-12-14T03:16:12.696Z,6.48
2017-12-14T03:17:12.981Z,6.46
2017-12-14T03:18:12.722Z,6.45
2017-12-14T03:19:12.729Z,6.45
2017-12-14T03:20:13.021Z,6.48
2017-12-14T03:21:12.752Z,6.42
2017-12-14T03:22:13.040Z,6.42
2017-12-14T03:23:13.050Z,6.48
2017-12-14T03:24:13.061Z,6.48
2017-12-14T03:25:13.082Z,6.46
2017-12-14T03:26:13.087Z,6.52
2017-12-14T03:27:13.097Z,6.36
2017-12-14T03:28:12.833Z,6.33
2017-12-14T03:29:13.120Z,6.46
2017-12-14T03:30:13.208Z,6.49
2017-12-14T03:31:13.145Z,6.36
2017-12-14T03:32:13.157Z,6.46
2017-12-14T03:33:13.173Z,6.48
2017-12-14T03:34:13.177Z,6.45
2017-12-14T03:35:13.192Z,6.46
2017-12-14T03:36:12.924Z,6.48
2017-12-14T03:37:13.212Z,6.46
2017-12-14T03:38:13.223Z,6.49
2017-12-14T03:39:13.251Z,6.35
2017-12-14T03:40:13.254Z,6.3
2017-12-14T03:41:13.261Z,6.51
2017-12-14T03:42:13.266Z,6.49
2017-12-14T03:43:13.280Z,6.46
2017-12-14T03:44:13.011Z,6.49
2017-12-14T03:45:13.301Z,6.49
2017-12-14T03:46:13.034Z,6.46
2017-12-14T03:47:13.319Z,6.31
2017-12-14T03:48:13.056Z,6.45
2017-12-14T03:49:13.067Z,6.44
2017-12-14T03:50:13.364Z,6.48
2017-12-14T03:51:13.368Z,6.41
2017-12-14T03:52:13.378Z,6.49
2017-12-14T03:53:13.391Z,6.33
2017-12-14T03:54:13.401Z,6.48
2017-12-14T03:55:13.138Z,6.48
2017-12-14T03:56:13.423Z,6.44
2017-12-14T03:57:13.440Z,6.38
2017-12-14T03:58:13.449Z,6.35
2017-12-14T03:59:13.460Z,6.3
2017-12-14T04:00:12.916Z,6.46
2017-12-14T04:01:13.491Z,6.48
2017-12-14T04:02:13.503Z,6.33
2017-12-14T04:03:13.226Z,6.45
2017-12-14T04:04:13.247Z,6.33
2017-12-14T04:05:13.540Z,6.38
2017-12-14T04:06:13.259Z,6.38
2017-12-14T04:07:13.278Z,6.44
2017-12-14T04:08:13.572Z,6.38
2017-12-14T04:09:13.587Z,6.3
2017-12-14T04:10:13.587Z,6.35
2017-12-14T04:11:13.340Z,6.46
2017-12-14T04:12:13.625Z,6.46
2017-12-14T04:13:13.618Z,6.35
2017-12-14T04:14:13.627Z,6.31
2017-12-14T04:15:13.641Z,6.39
2017-12-14T04:16:13.380Z,6.36
2017-12-14T04:17:13.386Z,6.31
2017-12-14T04:18:13.678Z,6.41
2017-12-14T04:19:13.684Z,6.31
2017-12-14T04:20:13.703Z,6.36
2017-12-14T04:21:13.708Z,6.46
2017-12-14T04:22:13.721Z,6.36
2017-12-14T04:23:13.494Z,6.46
2017-12-14T04:24:13.474Z,6.48
2017-12-14T04:25:13.759Z,6.33
2017-12-14T04:26:13.767Z,6.42
2017-12-14T04:27:13.516Z,6.42
2017-12-14T04:28:13.783Z,6.48
2017-12-14T04:29:13.797Z,6.49
2017-12-14T04:30:13.533Z,6.39
2017-12-14T04:31:13.879Z,6.49
2017-12-14T04:32:13.352Z,6.46
2017-12-14T04:33:13.957Z,6.41
2017-12-14T04:34:13.668Z,6.44
2017-12-14T04:35:13.338Z,6.35
2017-12-14T04:36:13.877Z,6.33
2017-12-14T04:37:13.634Z,6.48
2017-12-14T04:38:13.897Z,6.39
2017-12-14T04:39:14.217Z,6.49
2017-12-14T04:40:13.646Z,6.49
2017-12-14T04:41:14.054Z,6.46
2017-12-14T04:42:13.396Z,6.49
2017-12-14T04:43:13.997Z,6.38
2017-12-14T04:44:13.692Z,6.27
2017-12-14T04:45:13.977Z,6.36
2017-12-14T04:46:13.993Z,6.31
2017-12-14T04:47:14.002Z,6.46
2017-12-14T04:48:13.739Z,6.42
2017-12-14T04:49:14.042Z,6.33
2017-12-14T04:50:13.797Z,6.39
2017-12-14T04:51:14.095Z,6.35
2017-12-14T04:52:13.784Z,6.31
2017-12-14T04:53:14.081Z,6.39
2017-12-14T04:54:14.076Z,6.45
2017-12-14T04:55:14.090Z,6.36
2017-12-14T04:56:13.876Z,6.36
2017-12-14T04:57:14.133Z,6.38
2017-12-14T04:58:14.134Z,6.36
2017-12-14T04:59:13.865Z,6.31
2017-12-14T05:00:13.875Z,6.31
2017-12-14T05:01:13.892Z,6.41
2017-12-14T05:02:13.892Z,6.36
2017-12-14T05:03:14.189Z,6.33
2017-12-14T05:04:13.715Z,6.33
2017-12-14T05:05:13.931Z,6.31
2017-12-14T05:06:14.562Z,6.38
2017-12-14T05:07:14.069Z,6.3
2017-12-14T05:08:14.240Z,6.35
2017-12-14T05:09:14.251Z,6.35
2017-12-14T05:10:13.986Z,6.35
2017-12-14T05:11:14.051Z,6.35
2017-12-14T05:12:14.280Z,6.35
2017-12-14T05:13:14.299Z,6.35
2017-12-14T05:14:14.309Z,6.45
2017-12-14T05:15:13.770Z,6.31
2017-12-14T05:16:14.328Z,6.48
2017-12-14T05:17:14.064Z,6.44
2017-12-14T05:18:14.074Z,6.52
2017-12-14T05:19:14.085Z,6.46
2017-12-14T05:20:14.176Z,6.49
2017-12-14T05:21:14.111Z,6.46
2017-12-14T05:22:14.397Z,6.49
2017-12-14T05:23:14.404Z,6.56
2017-12-14T05:24:14.426Z,6.57
2017-12-14T05:25:15.072Z,6.54
2017-12-14T05:26:14.215Z,6.54
2017-12-14T05:27:13.899Z,6.56
2017-12-14T05:28:14.802Z,6.54
2017-12-14T05:29:14.201Z,6.51
2017-12-14T05:30:14.492Z,6.52
2017-12-14T05:31:14.222Z,6.54
2017-12-14T05:32:14.508Z,6.52
2017-12-14T05:33:14.246Z,6.59
2017-12-14T05:34:14.256Z,6.56
2017-12-14T05:35:13.988Z,6.54
2017-12-14T05:36:14.608Z,6.54
2017-12-14T05:37:14.287Z,6.48
2017-12-14T05:38:14.300Z,6.63
2017-12-14T05:39:14.312Z,6.48
2017-12-14T05:40:14.597Z,6.59
2017-12-14T05:41:14.446Z,6.49
2017-12-14T05:42:14.622Z,6.51
2017-12-14T05:43:14.357Z,6.59
2017-12-14T05:44:14.368Z,6.66
2017-12-14T05:45:14.376Z,6.62
2017-12-14T05:46:14.392Z,6.67
2017-12-14T05:47:14.131Z,6.69
2017-12-14T05:48:14.410Z,6.7
2017-12-14T05:49:14.428Z,6.64
2017-12-14T05:50:14.442Z,6.62
2017-12-14T05:51:14.456Z,6.62
2017-12-14T05:52:14.192Z,6.62
2017-12-14T05:53:14.472Z,6.64
2017-12-14T05:54:14.480Z,6.74
2017-12-14T05:55:14.769Z,6.6
2017-12-14T05:56:14.778Z,6.66
2017-12-14T05:57:14.517Z,6.66
2017-12-14T05:58:14.530Z,6.62
2017-12-14T05:59:14.547Z,6.69
2017-12-14T06:00:14.557Z,6.59
2017-12-14T06:01:14.566Z,6.66
2017-12-14T06:02:14.846Z,6.66
2017-12-14T06:03:14.582Z,6.6
2017-12-14T06:04:14.593Z,6.72
2017-12-14T06:05:14.612Z,6.75
2017-12-14T06:06:14.898Z,6.7
2017-12-14T06:07:14.907Z,6.62
2017-12-14T06:08:14.922Z,6.62
2017-12-14T06:09:14.929Z,6.62
2017-12-14T06:10:14.681Z,6.7
2017-12-14T06:11:14.952Z,6.57
2017-12-14T06:12:14.749Z,6.66
2017-12-14T06:13:14.979Z,6.59
2017-12-14T06:14:14.715Z,6.66
2017-12-14T06:15:14.995Z,6.62
2017-12-14T06:16:14.786Z,6.6
2017-12-14T06:17:14.747Z,6.62
2017-12-14T06:18:14.756Z,6.56
2017-12-14T06:19:15.044Z,6.64
2017-12-14T06:20:14.779Z,6.64
2017-12-14T06:21:14.791Z,6.6
2017-12-14T06:22:15.079Z,6.62
2017-12-14T06:23:15.133Z,6.63
2017-12-14T06:24:15.097Z,6.6
2017-12-14T06:25:14.836Z,6.6
2017-12-14T06:26:14.855Z,6.67
2017-12-14T06:27:14.860Z,6.67
2017-12-14T06:28:15.144Z,6.64
2017-12-14T06:29:14.883Z,6.63
2017-12-14T06:30:15.191Z,6.72
2017-12-14T06:31:15.614Z,6.7
2017-12-14T06:32:15.212Z,6.7
2017-12-14T06:33:15.214Z,6.67
2017-12-14T06:34:14.662Z,6.74
2017-12-14T06:35:14.950Z,6.7
2017-12-14T06:36:15.289Z,6.7
2017-12-14T06:37:15.299Z,6.66
2017-12-14T06:38:14.990Z,6.67
2017-12-14T06:39:15.269Z,6.72
2017-12-14T06:40:15.005Z,6.7
2017-12-14T06:41:15.015Z,6.75
2017-12-14T06:42:15.356Z,6.72
2017-12-14T06:43:15.324Z,6.69
2017-12-14T06:44:15.050Z,6.72
2017-12-14T06:45:15.064Z,6.72
2017-12-14T06:46:15.074Z,6.75
2017-12-14T06:47:15.098Z,6.69
2017-12-14T06:48:15.379Z,6.69
2017-12-14T06:49:15.124Z,6.81
2017-12-14T06:50:15.137Z,6.74
2017-12-14T06:51:15.133Z,6.77
2017-12-14T06:52:15.425Z,6.66
2017-12-14T06:53:15.433Z,6.79
2017-12-14T06:54:15.457Z,6.74
2017-12-14T06:55:15.470Z,6.75
2017-12-14T06:56:15.470Z,6.75
2017-12-14T06:57:15.520Z,6.77
2017-12-14T06:58:15.489Z,6.7
2017-12-14T06:59:15.510Z,6.74
2017-12-14T07:00:15.237Z,6.72
2017-12-14T07:01:15.526Z,6.78
2017-12-14T07:02:15.260Z,6.79
2017-12-14T07:03:15.274Z,6.74
2017-12-14T07:04:15.560Z,6.78
2017-12-14T07:05:15.291Z,6.82
2017-12-14T07:06:15.580Z,6.79
2017-12-14T07:07:15.320Z,6.85
2017-12-14T07:08:15.719Z,6.72
2017-12-14T07:09:15.620Z,6.84
2017-12-14T07:10:15.357Z,6.75
2017-12-14T07:11:15.370Z,6.77
2017-12-14T07:12:15.658Z,6.84
2017-12-14T07:13:15.391Z,6.84
2017-12-14T07:14:15.396Z,6.82
2017-12-14T07:15:15.685Z,6.81
2017-12-14T07:16:15.700Z,6.78
2017-12-14T07:17:15.725Z,6.84
2017-12-14T07:18:15.729Z,6.84
2017-12-14T07:19:15.738Z,6.89
2017-12-14T07:20:15.475Z,6.84
2017-12-14T07:21:15.536Z,6.89
2017-12-14T07:22:15.220Z,6.92
2017-12-14T07:23:15.833Z,6.93
2017-12-14T07:24:15.517Z,6.95
2017-12-14T07:25:15.809Z,6.96
2017-12-14T07:26:15.539Z,6.88
2017-12-14T07:27:15.551Z,6.88
2017-12-14T07:28:15.840Z,6.93
2017-12-14T07:29:15.851Z,6.93
2017-12-14T07:30:15.587Z,6.95
2017-12-14T07:31:15.639Z,6.89
2017-12-14T07:32:15.614Z,6.92
2017-12-14T07:33:15.619Z,6.88
2017-12-14T07:34:15.910Z,6.95
2017-12-14T07:35:15.961Z,6.92
2017-12-14T07:36:15.936Z,6.97
2017-12-14T07:37:15.668Z,6.88
2017-12-14T07:38:15.685Z,6.92
2017-12-14T07:39:15.696Z,6.92
2017-12-14T07:40:15.430Z,6.96
2017-12-14T07:41:15.992Z,6.93
2017-12-14T07:42:15.448Z,6.97
2017-12-14T07:43:16.015Z,6.93
2017-12-14T07:44:16.024Z,6.97
2017-12-14T07:45:15.764Z,6.89
2017-12-14T07:46:15.777Z,6.95
2017-12-14T07:47:15.784Z,6.95
2017-12-14T07:48:16.068Z,6.96
2017-12-14T07:49:15.812Z,6.95
2017-12-14T07:50:15.825Z,6.97
2017-12-14T07:51:15.552Z,6.93
2017-12-14T07:52:15.902Z,6.95
2017-12-14T07:53:15.863Z,6.95
2017-12-14T07:54:16.140Z,6.96
2017-12-14T07:55:16.217Z,6.95
2017-12-14T07:56:15.885Z,6.89
2017-12-14T07:57:15.899Z,6.81
2017-12-14T07:58:15.910Z,6.87
2017-12-14T07:59:16.212Z,6.81
2017-12-14T08:00:15.942Z,6.81
2017-12-14T08:01:16.232Z,6.78
2017-12-14T08:02:15.685Z,6.75
2017-12-14T08:03:16.255Z,6.77
2017-12-14T08:04:16.270Z,6.72
2017-12-14T08:05:16.275Z,6.79
2017-12-14T08:06:16.004Z,6.66
2017-12-14T08:07:16.304Z,6.66
2017-12-14T08:08:16.300Z,6.7
2017-12-14T08:09:15.766Z,6.75
2017-12-14T08:10:15.777Z,6.72
2017-12-14T08:11:16.061Z,6.69
2017-12-14T08:12:16.354Z,6.7
2017-12-14T08:13:16.363Z,6.66
2017-12-14T08:14:16.391Z,6.62
2017-12-14T08:15:16.390Z,6.69
2017-12-14T08:16:16.485Z,6.63
2017-12-14T08:17:16.408Z,6.63
2017-12-14T08:18:16.142Z,6.7
2017-12-14T08:19:15.880Z,6.6
2017-12-14T08:20:16.445Z,6.63
2017-12-14T08:21:16.453Z,6.66
2017-12-14T08:22:16.464Z,6.7
2017-12-14T08:23:16.481Z,6.64
2017-12-14T08:24:16.220Z,6.62
2017-12-14T08:25:16.224Z,6.57
2017-12-14T08:26:16.513Z,6.59
2017-12-14T08:27:16.521Z,6.59
2017-12-14T08:28:16.533Z,6.59
2017-12-14T08:29:16.577Z,6.57
2017-12-14T08:30:16.284Z,6.49
2017-12-14T08:31:16.572Z,6.57
2017-12-14T08:32:16.305Z,6.6
2017-12-14T08:33:16.592Z,6.57
2017-12-14T08:34:16.050Z,6.54
2017-12-14T08:35:16.066Z,6.54
2017-12-14T08:36:16.354Z,6.48
2017-12-14T08:37:16.377Z,6.49
2017-12-14T08:38:16.375Z,6.54
2017-12-14T08:39:16.391Z,6.54
2017-12-14T08:40:16.679Z,6.52
2017-12-14T08:41:16.688Z,6.54
2017-12-14T08:42:16.697Z,6.54
2017-12-14T08:43:16.432Z,6.49
2017-12-14T08:44:16.171Z,6.56
2017-12-14T08:45:16.736Z,6.56
2017-12-14T08:46:16.742Z,6.54
2017-12-14T08:47:16.477Z,6.51
2017-12-14T08:48:16.764Z,6.52
2017-12-14T08:49:16.828Z,6.56
2017-12-14T08:50:16.531Z,6.52
2017-12-14T08:51:16.799Z,6.6
2017-12-14T08:52:16.539Z,6.56
2017-12-14T08:53:16.824Z,6.51
2017-12-14T08:54:16.563Z,6.54
2017-12-14T08:55:16.572Z,6.56
2017-12-14T08:56:16.864Z,6.51
2017-12-14T08:57:16.874Z,6.46
2017-12-14T08:58:16.886Z,6.62
2017-12-14T08:59:16.903Z,6.52
2017-12-14T09:00:16.631Z,6.57
2017-12-14T09:01:16.364Z,6.56
2017-12-14T09:02:16.932Z,6.59
2017-12-14T09:03:16.940Z,6.52
2017-12-14T09:04:16.730Z,6.62
2017-12-14T09:05:16.974Z,6.56
2017-12-14T09:06:16.420Z,6.56
2017-12-14T09:07:16.988Z,6.62
2017-12-14T09:08:17.053Z,6.49
2017-12-14T09:09:17.061Z,6.57
2017-12-14T09:10:16.746Z,6.56
2017-12-14T09:11:17.040Z,6.63
2017-12-14T09:12:17.044Z,6.59
2017-12-14T09:13:16.784Z,6.66
2017-12-14T09:14:16.794Z,6.63
2017-12-14T09:15:16.803Z,6.66
2017-12-14T09:16:16.816Z,6.62
2017-12-14T09:17:17.099Z,6.62
2017-12-14T09:18:16.845Z,6.64
2017-12-14T09:19:17.132Z,6.52
2017-12-14T09:20:17.139Z,6.64
2017-12-14T09:21:17.145Z,6.6
2017-12-14T09:22:17.162Z,6.7
2017-12-14T09:23:16.908Z,6.75
2017-12-14T09:24:17.182Z,6.64
2017-12-14T09:25:17.209Z,6.59
2017-12-14T09:26:17.207Z,6.6
2017-12-14T09:27:17.222Z,6.59
2017-12-14T09:28:17.228Z,6.66
2017-12-14T09:29:17.238Z,6.59
2017-12-14T09:30:16.988Z,6.59
2017-12-14T09:31:17.268Z,6.64
2017-12-14T09:32:17.279Z,6.48
2017-12-14T09:33:17.285Z,6.6
2017-12-14T09:34:17.019Z,6.51
2017-12-14T09:35:17.316Z,6.54
2017-12-14T09:36:17.320Z,6.49
2017-12-14T09:37:17.386Z,6.56
2017-12-14T09:38:17.364Z,6.54
2017-12-14T09:39:17.362Z,6.6
2017-12-14T09:40:17.425Z,6.54
2017-12-14T09:41:17.378Z,6.56
2017-12-14T09:42:17.124Z,6.56
2017-12-14T09:43:17.401Z,6.57
2017-12-14T09:44:16.875Z,6.56
2017-12-14T09:45:17.430Z,6.57
2017-12-14T09:46:17.441Z,6.52
2017-12-14T09:47:17.452Z,6.59
2017-12-14T09:48:17.458Z,6.54
2017-12-14T09:49:17.473Z,6.6
2017-12-14T09:50:16.928Z,6.52
2017-12-14T09:51:17.495Z,6.57
2017-12-14T09:52:17.507Z,6.54
2017-12-14T09:53:16.965Z,6.57
2017-12-14T09:54:17.253Z,6.45
2017-12-14T09:55:17.262Z,6.51
2017-12-14T09:56:17.290Z,6.51
2017-12-14T09:57:17.569Z,6.52
2017-12-14T09:58:17.662Z,6.51
2017-12-14T09:59:17.309Z,6.49
2017-12-14T10:00:17.321Z,6.46
2017-12-14T10:01:17.609Z,6.49
2017-12-14T10:02:17.343Z,6.49
2017-12-14T10:03:17.396Z,6.46
2017-12-14T10:04:17.365Z,6.48
2017-12-14T10:05:17.379Z,6.49
2017-12-14T10:06:17.389Z,6.46
2017-12-14T10:07:17.681Z,6.49
2017-12-14T10:08:17.422Z,6.44
2017-12-14T10:09:17.423Z,6.42
2017-12-14T10:10:17.713Z,6.35
2017-12-14T10:11:17.447Z,6.46
2017-12-14T10:12:17.735Z,6.33
2017-12-14T10:13:17.747Z,6.33
2017-12-14T10:14:17.755Z,6.36
2017-12-14T10:15:17.499Z,6.3
2017-12-14T10:16:17.800Z,6.46
2017-12-14T10:17:17.514Z,6.38
2017-12-14T10:18:17.840Z,6.44
2017-12-14T10:19:17.910Z,6.46
2017-12-14T10:20:17.828Z,6.44
2017-12-14T10:21:17.837Z,6.46
2017-12-14T10:22:17.319Z,6.36
2017-12-14T10:23:17.871Z,6.46
2017-12-14T10:24:17.615Z,6.45
2017-12-14T10:25:17.935Z,6.31
2017-12-14T10:26:17.908Z,6.36
2017-12-14T10:27:17.662Z,6.49
2017-12-14T10:28:17.924Z,6.35
2017-12-14T10:29:17.960Z,6.38
2017-12-14T10:30:17.663Z,6.45
2017-12-14T10:31:17.675Z,6.46
2017-12-14T10:32:17.687Z,6.52
2017-12-14T10:33:17.987Z,6.52
2017-12-14T10:34:17.990Z,6.42
2017-12-14T10:35:18.005Z,6.44
2017-12-14T10:36:18.065Z,6.45
2017-12-14T10:37:18.022Z,6.45
2017-12-14T10:38:17.764Z,6.44
2017-12-14T10:39:18.042Z,6.48
2017-12-14T10:40:17.831Z,6.49
2017-12-14T10:41:18.068Z,6.49
2017-12-14T10:42:18.081Z,6.49
2017-12-14T10:43:18.089Z,6.48
2017-12-14T10:44:18.104Z,6.49
2017-12-14T10:45:18.164Z,6.46
2017-12-14T10:46:17.848Z,6.48
2017-12-14T10:47:18.139Z,6.56
2017-12-14T10:48:18.148Z,6.57
2017-12-14T10:49:18.158Z,6.52
2017-12-14T10:50:18.169Z,6.49
2017-12-14T10:51:17.919Z,6.62
2017-12-14T10:52:18.203Z,6.62
2017-12-14T10:53:18.228Z,6.52
2017-12-14T10:54:18.218Z,6.57
2017-12-14T10:55:17.683Z,6.56
2017-12-14T10:56:18.004Z,6.54
2017-12-14T10:57:18.252Z,6.54
2017-12-14T10:58:17.989Z,6.51
2017-12-14T10:59:18.285Z,6.45
2017-12-14T11:00:18.436Z,6.63
2017-12-14T11:01:18.306Z,6.59
2017-12-14T11:02:18.034Z,6.57
2017-12-14T11:03:18.320Z,6.56
2017-12-14T11:04:18.059Z,6.56
2017-12-14T11:05:18.341Z,6.49
2017-12-14T11:06:18.354Z,6.6
2017-12-14T11:07:18.365Z,6.59
2017-12-14T11:08:18.103Z,6.62
2017-12-14T11:09:18.388Z,6.64
2017-12-14T11:10:18.535Z,6.63
2017-12-14T11:11:18.139Z,6.57
2017-12-14T11:12:18.423Z,6.49
2017-12-14T11:13:18.158Z,6.51
2017-12-14T11:14:18.450Z,6.59
2017-12-14T11:15:18.182Z,6.56
2017-12-14T11:16:18.470Z,6.57
2017-12-14T11:17:18.479Z,6.57
2017-12-14T11:18:18.498Z,6.69
2017-12-14T11:19:18.509Z,6.66
2017-12-14T11:20:18.011Z,6.6
2017-12-14T11:21:18.535Z,6.62
2017-12-14T11:22:18.265Z,6.57
2017-12-14T11:23:17.996Z,6.67
2017-12-14T11:24:18.562Z,6.64
2017-12-14T11:25:18.568Z,6.74
2017-12-14T11:26:18.583Z,6.64
2017-12-14T11:27:18.322Z,6.64
2017-12-14T11:28:18.604Z,6.66
2017-12-14T11:29:18.625Z,6.6
2017-12-14T11:30:18.628Z,6.59
2017-12-14T11:31:18.841Z,6.62
2017-12-14T11:32:18.796Z,6.7
2017-12-14T11:33:18.672Z,6.7
2017-12-14T11:34:18.398Z,6.72
2017-12-14T11:35:18.408Z,6.78
2017-12-14T11:36:18.704Z,6.69
2017-12-14T11:37:18.439Z,6.7
2017-12-14T11:38:18.444Z,6.69
2017-12-14T11:39:18.736Z,6.67
2017-12-14T11:40:18.467Z,6.77
2017-12-14T11:41:18.598Z,6.79
2017-12-14T11:42:18.581Z,6.82
2017-12-14T11:43:18.541Z,6.88
2017-12-14T11:44:18.586Z,6.85
2017-12-14T11:45:18.268Z,6.81
2017-12-14T11:46:18.537Z,6.89
2017-12-14T11:47:18.830Z,6.88
2017-12-14T11:48:18.843Z,6.87
2017-12-14T11:49:18.850Z,6.95
2017-12-14T11:50:18.861Z,6.92
2017-12-14T11:51:18.602Z,6.92
2017-12-14T11:52:18.888Z,6.97
2017-12-14T11:53:18.628Z,6.97
2017-12-14T11:54:18.914Z,7.02
2017-12-14T11:55:18.968Z,7.03
2017-12-14T11:56:18.930Z,7.03
2017-12-14T11:57:18.666Z,7.05
2017-12-14T11:58:18.678Z,7.11
2017-12-14T11:59:18.694Z,7
2017-12-14T12:00:18.426Z,7.06
2017-12-14T12:01:18.747Z,7.03
2017-12-14T12:02:18.723Z,7.07
2017-12-14T12:03:18.738Z,7.11
2017-12-14T12:04:18.765Z,7.18
2017-12-14T12:05:18.762Z,7.13
2017-12-14T12:06:18.772Z,7.11
2017-12-14T12:07:19.066Z,7.13
2017-12-14T12:08:18.799Z,7.06
2017-12-14T12:09:19.102Z,7.15
2017-12-14T12:10:19.613Z,7.23
2017-12-14T12:11:19.109Z,7.2
2017-12-14T12:12:18.846Z,7.18
2017-12-14T12:13:19.340Z,7.15
2017-12-14T12:14:18.594Z,7.14
2017-12-14T12:15:19.202Z,7.23
2017-12-14T12:16:19.173Z,7.17
2017-12-14T12:17:18.902Z,7.13
2017-12-14T12:18:19.192Z,7.15
2017-12-14T12:19:19.203Z,7.18
2017-12-14T12:20:19.222Z,7.13
2017-12-14T12:21:19.227Z,7.25
2017-12-14T12:22:19.246Z,7.17
2017-12-14T12:23:19.256Z,7.24
2017-12-14T12:24:19.265Z,7.21
2017-12-14T12:25:19.257Z,7.32
2017-12-14T12:26:19.010Z,7.28
2017-12-14T12:27:19.294Z,7.25
2017-12-14T12:28:19.033Z,7.29
2017-12-14T12:29:18.769Z,7.29
2017-12-14T12:30:19.332Z,7.29
2017-12-14T12:31:19.067Z,7.33
2017-12-14T12:32:19.363Z,7.31
2017-12-14T12:33:19.093Z,7.38
2017-12-14T12:34:19.104Z,7.28
2017-12-14T12:35:19.501Z,7.39
2017-12-14T12:36:19.403Z,7.31
2017-12-14T12:37:19.422Z,7.31
2017-12-14T12:38:19.430Z,7.36
2017-12-14T12:39:19.441Z,7.35
2017-12-14T12:40:19.452Z,7.28
2017-12-14T12:41:19.198Z,7.25
2017-12-14T12:42:19.478Z,7.31
2017-12-14T12:43:19.490Z,7.28
2017-12-14T12:44:19.517Z,7.24
2017-12-14T12:45:19.510Z,7.32
2017-12-14T12:46:19.247Z,7.24
2017-12-14T12:47:19.538Z,7.33
2017-12-14T12:48:19.548Z,7.36
2017-12-14T12:49:19.574Z,7.38
2017-12-14T12:50:19.299Z,7.32
2017-12-14T12:51:19.586Z,7.25
2017-12-14T12:52:19.320Z,7.33
2017-12-14T12:53:19.620Z,7.28
2017-12-14T12:54:19.343Z,7.29
2017-12-14T12:55:19.631Z,7.28
2017-12-14T12:56:19.640Z,7.29
2017-12-14T12:57:19.658Z,7.29
2017-12-14T12:58:19.120Z,7.31
2017-12-14T12:59:19.680Z,7.39
2017-12-14T13:00:19.693Z,7.32
2017-12-14T13:01:19.431Z,7.32
2017-12-14T13:02:19.719Z,7.36
2017-12-14T13:03:19.451Z,7.31
2017-12-14T13:04:19.755Z,7.39
2017-12-14T13:05:19.473Z,7.4
2017-12-14T13:06:19.778Z,7.36
2017-12-14T13:07:19.799Z,7.38
2017-12-14T13:08:19.520Z,7.39
2017-12-14T13:09:19.524Z,7.42
2017-12-14T13:10:19.825Z,7.35
2017-12-14T13:11:19.831Z,7.43
2017-12-14T13:12:19.875Z,7.43
2017-12-14T13:13:19.856Z,7.43
2017-12-14T13:14:19.861Z,7.39
2017-12-14T13:15:19.881Z,7.45
2017-12-14T13:16:19.902Z,7.5
2017-12-14T13:17:19.347Z,7.39
2017-12-14T13:18:19.911Z,7.47
2017-12-14T13:19:19.923Z,7.48
2017-12-14T13:20:19.935Z,7.45